sensor_id;sensor_type;location;lat;lon;timestamp;pressure;altitude;pressure_sealevel;temperature;humidity
3178;BME280;38141;42.666;23.344;2023-08-24T00:00:37;94774.56;;;24.66;96.23
3178;BME280;38141;42.666;23.344;2023-08-24T00:03:04;94797.09;;;24.74;97.24
3178;BME280;38141;42.666;23.344;2023-08-24T00:05:33;94796.22;;;24.68;96.89
3178;BME280;38141;42.666;23.344;2023-08-24T00:08:02;94803.91;;;24.64;98.56
3178;BME280;38141;42.666;23.344;2023-08-24T00:10:30;94768.91;;;24.37;99.39
3178;BME280;38141;42.666;23.344;2023-08-24T00:12:58;94698.31;;;23.85;99.19
3178;BME280;38141;42.666;23.344;2023-08-24T00:15:25;94798.09;;;24.38;100.00
3178;BME280;38141;42.666;23.344;2023-08-24T00:17:51;94799.41;;;24.52;98.06
3178;BME280;38141;42.666;23.344;2023-08-24T00:20:18;94750.13;;;24.41;97.36
3178;BME280;38141;42.666;23.344;2023-08-24T00:22:46;94787.97;;;24.59;98.39
3178;BME280;38141;42.666;23.344;2023-08-24T00:25:13;94768.81;;;24.22;100.00
3178;BME280;38141;42.666;23.344;2023-08-24T00:27:41;94779.00;;;24.07;100.00
3178;BME280;38141;42.666;23.344;2023-08-24T00:30:15;94779.59;;;24.20;100.00
3178;BME280;38141;42.666;23.344;2023-08-24T00:32:42;94781.88;;;24.22;100.00
3178;BME280;38141;42.666;23.344;2023-08-24T00:35:09;94769.84;;;24.34;99.17
3178;BME280;38141;42.666;23.344;2023-08-24T00:37:37;94761.53;;;24.34;96.56
3178;BME280;38141;42.666;23.344;2023-08-24T00:40:05;94705.25;;;24.13;90.97
3178;BME280;38141;42.666;23.344;2023-08-24T00:42:37;94769.66;;;24.38;98.67
3178;BME280;38141;42.666;23.344;2023-08-24T00:45:07;94801.00;;;24.44;100.00
3178;BME280;38141;42.666;23.344;2023-08-24T00:47:35;94776.53;;;24.09;100.00
3178;BME280;38141;42.666;23.344;2023-08-24T00:50:02;94759.81;;;23.71;100.00
3178;BME280;38141;42.666;23.344;2023-08-24T00:52:31;94748.13;;;23.67;100.00
3178;BME280;38141;42.666;23.344;2023-08-24T00:54:58;94739.69;;;23.70;100.00
3178;BME280;38141;42.666;23.344;2023-08-24T00:57:26;94803.41;;;24.09;100.00
3178;BME280;38141;42.666;23.344;2023-08-24T00:59:53;94793.66;;;23.89;100.00
3178;BME280;38141;42.666;23.344;2023-08-24T01:02:22;94793.88;;;23.68;100.00
3178;BME280;38141;42.666;23.344;2023-08-24T01:04:48;94787.41;;;23.80;100.00
3178;BME280;38141;42.666;23.344;2023-08-24T01:07:15;94789.44;;;23.70;100.00
3178;BME280;38141;42.666;23.344;2023-08-24T01:09:43;94761.94;;;23.67;100.00
3178;BME280;38141;42.666;23.344;2023-08-24T01:12:18;94703.84;;;23.43;100.00
3178;BME280;38141;42.666;23.344;2023-08-24T01:14:50;94778.66;;;23.72;100.00
3178;BME280;38141;42.666;23.344;2023-08-24T01:17:24;94746.19;;;23.40;100.00
3178;BME280;38141;42.666;23.344;2023-08-24T01:19:53;94782.56;;;23.57;100.00
3178;BME280;38141;42.666;23.344;2023-08-24T01:22:32;94770.22;;;23.76;100.00
3178;BME280;38141;42.666;23.344;2023-08-24T01:25:06;94721.66;;;23.51;100.00
3178;BME280;38141;42.666;23.344;2023-08-24T01:27:36;94786.97;;;23.63;100.00
3178;BME280;38141;42.666;23.344;2023-08-24T01:30:05;94769.78;;;23.68;100.00
3178;BME280;38141;42.666;23.344;2023-08-24T01:32:33;94799.19;;;23.89;100.00
3178;BME280;38141;42.666;23.344;2023-08-24T01:35:04;94802.16;;;23.68;100.00
3178;BME280;38141;42.666;23.344;2023-08-24T01:37:32;94711.88;;;23.23;100.00
3178;BME280;38141;42.666;23.344;2023-08-24T01:40:04;94745.97;;;22.74;100.00
3178;BME280;38141;42.666;23.344;2023-08-24T01:42:43;94753.31;;;22.86;100.00
3178;BME280;38141;42.666;23.344;2023-08-24T01:45:11;94738.75;;;22.86;100.00
3178;BME280;38141;42.666;23.344;2023-08-24T01:47:40;94759.31;;;23.12;100.00
3178;BME280;38141;42.666;23.344;2023-08-24T01:50:09;94761.16;;;22.97;100.00
3178;BME280;38141;42.666;23.344;2023-08-24T01:52:38;94767.56;;;23.30;100.00
3178;BME280;38141;42.666;23.344;2023-08-24T01:55:05;94799.28;;;23.53;100.00
3178;BME280;38141;42.666;23.344;2023-08-24T01:57:32;94728.47;;;23.14;100.00
3178;BME280;38141;42.666;23.344;2023-08-24T02:00:01;94737.31;;;23.27;100.00
3178;BME280;38141;42.666;23.344;2023-08-24T02:02:31;94764.81;;;23.21;100.00
3178;BME280;38141;42.666;23.344;2023-08-24T02:04:58;94783.47;;;23.54;100.00
3178;BME280;38141;42.666;23.344;2023-08-24T02:07:25;94774.00;;;23.27;100.00
3178;BME280;38141;42.666;23.344;2023-08-24T02:09:52;94754.50;;;23.31;100.00
3178;BME280;38141;42.666;23.344;2023-08-24T02:12:18;94741.97;;;23.02;100.00
3178;BME280;38141;42.666;23.344;2023-08-24T02:14:45;94714.84;;;22.74;100.00
3178;BME280;38141;42.666;23.344;2023-08-24T02:17:13;94774.94;;;23.15;100.00
3178;BME280;38141;42.666;23.344;2023-08-24T02:19:40;94803.44;;;23.30;100.00
3178;BME280;38141;42.666;23.344;2023-08-24T02:22:07;94751.94;;;22.82;100.00
3178;BME280;38141;42.666;23.344;2023-08-24T02:24:34;94801.94;;;23.11;100.00
3178;BME280;38141;42.666;23.344;2023-08-24T02:27:01;94752.06;;;22.69;100.00
3178;BME280;38141;42.666;23.344;2023-08-24T02:29:29;94739.81;;;22.61;100.00
3178;BME280;38141;42.666;23.344;2023-08-24T02:31:57;94820.75;;;23.22;100.00
3178;BME280;38141;42.666;23.344;2023-08-24T02:34:25;94765.13;;;22.87;100.00
3178;BME280;38141;42.666;23.344;2023-08-24T02:36:52;94804.84;;;23.08;100.00
3178;BME280;38141;42.666;23.344;2023-08-24T02:39:19;94805.59;;;23.08;100.00
3178;BME280;38141;42.666;23.344;2023-08-24T02:41:46;94813.13;;;23.08;100.00
3178;BME280;38141;42.666;23.344;2023-08-24T02:44:12;94806.53;;;23.05;100.00
3178;BME280;38141;42.666;23.344;2023-08-24T02:46:39;94810.97;;;23.02;100.00
3178;BME280;38141;42.666;23.344;2023-08-24T02:49:07;94758.78;;;22.59;100.00
3178;BME280;38141;42.666;23.344;2023-08-24T02:51:37;94723.38;;;22.21;100.00
3178;BME280;38141;42.666;23.344;2023-08-24T02:54:04;94764.34;;;22.77;100.00
3178;BME280;38141;42.666;23.344;2023-08-24T02:56:31;94719.38;;;22.31;100.00
3178;BME280;38141;42.666;23.344;2023-08-24T02:58:58;94750.97;;;22.39;100.00
3178;BME280;38141;42.666;23.344;2023-08-24T03:01:25;94674.50;;;22.22;100.00
3178;BME280;38141;42.666;23.344;2023-08-24T03:03:52;94740.13;;;22.90;100.00
3178;BME280;38141;42.666;23.344;2023-08-24T03:06:18;94743.66;;;23.09;100.00
3178;BME280;38141;42.666;23.344;2023-08-24T03:08:46;94777.06;;;23.29;100.00
3178;BME280;38141;42.666;23.344;2023-08-24T03:11:13;94802.19;;;23.31;100.00
3178;BME280;38141;42.666;23.344;2023-08-24T03:13:40;94811.25;;;23.23;100.00
3178;BME280;38141;42.666;23.344;2023-08-24T03:16:08;94758.81;;;22.68;100.00
3178;BME280;38141;42.666;23.344;2023-08-24T03:18:36;94756.56;;;22.76;100.00
3178;BME280;38141;42.666;23.344;2023-08-24T03:21:03;94762.50;;;22.65;100.00
3178;BME280;38141;42.666;23.344;2023-08-24T03:23:30;94811.75;;;22.94;100.00
3178;BME280;38141;42.666;23.344;2023-08-24T03:25:58;94822.00;;;23.02;100.00
3178;BME280;38141;42.666;23.344;2023-08-24T03:28:25;94775.97;;;22.63;100.00
3178;BME280;38141;42.666;23.344;2023-08-24T03:30:55;94766.66;;;22.79;100.00
3178;BME280;38141;42.666;23.344;2023-08-24T03:33:22;94757.75;;;22.66;100.00
3178;BME280;38141;42.666;23.344;2023-08-24T03:35:49;94839.03;;;23.19;100.00
3178;BME280;38141;42.666;23.344;2023-08-24T03:38:16;94829.22;;;23.18;100.00
3178;BME280;38141;42.666;23.344;2023-08-24T03:40:43;94778.75;;;22.72;100.00
3178;BME280;38141;42.666;23.344;2023-08-24T03:43:11;94816.31;;;22.79;100.00
3178;BME280;38141;42.666;23.344;2023-08-24T03:45:38;94815.56;;;22.78;100.00
3178;BME280;38141;42.666;23.344;2023-08-24T03:48:05;94855.81;;;22.67;100.00
3178;BME280;38141;42.666;23.344;2023-08-24T03:50:32;94799.25;;;22.44;100.00
3178;BME280;38141;42.666;23.344;2023-08-24T03:52:59;94815.88;;;22.71;100.00
3178;BME280;38141;42.666;23.344;2023-08-24T03:55:26;94813.47;;;22.42;100.00
3178;BME280;38141;42.666;23.344;2023-08-24T03:57:53;94848.41;;;22.54;100.00
3178;BME280;38141;42.666;23.344;2023-08-24T04:00:22;94810.25;;;22.44;100.00
3178;BME280;38141;42.666;23.344;2023-08-24T04:02:49;94751.69;;;22.22;100.00
3178;BME280;38141;42.666;23.344;2023-08-24T04:05:17;94768.56;;;22.33;100.00
3178;BME280;38141;42.666;23.344;2023-08-24T04:07:44;94805.41;;;22.66;100.00
3178;BME280;38141;42.666;23.344;2023-08-24T04:10:11;94854.81;;;23.00;100.00
3178;BME280;38141;42.666;23.344;2023-08-24T04:12:38;94820.91;;;22.82;100.00
3178;BME280;38141;42.666;23.344;2023-08-24T04:15:05;94797.72;;;22.61;100.00
3178;BME280;38141;42.666;23.344;2023-08-24T04:17:34;94783.13;;;22.42;100.00
3178;BME280;38141;42.666;23.344;2023-08-24T04:20:01;94793.59;;;22.66;100.00
3178;BME280;38141;42.666;23.344;2023-08-24T04:22:31;94791.94;;;22.77;100.00
3178;BME280;38141;42.666;23.344;2023-08-24T04:24:58;94813.25;;;23.13;100.00
3178;BME280;38141;42.666;23.344;2023-08-24T04:27:25;94766.81;;;22.75;100.00
3178;BME280;38141;42.666;23.344;2023-08-24T04:29:52;94801.31;;;22.98;100.00
3178;BME280;38141;42.666;23.344;2023-08-24T04:32:19;94792.41;;;22.76;100.00
3178;BME280;38141;42.666;23.344;2023-08-24T04:34:48;94867.38;;;22.92;100.00
3178;BME280;38141;42.666;23.344;2023-08-24T04:37:15;94819.53;;;22.77;100.00
3178;BME280;38141;42.666;23.344;2023-08-24T04:39:42;94861.13;;;23.19;100.00
3178;BME280;38141;42.666;23.344;2023-08-24T04:42:09;94800.38;;;22.74;100.00
3178;BME280;38141;42.666;23.344;2023-08-24T04:44:35;94799.94;;;22.93;100.00
3178;BME280;38141;42.666;23.344;2023-08-24T04:47:03;94832.28;;;22.93;100.00
3178;BME280;38141;42.666;23.344;2023-08-24T04:49:30;94838.69;;;23.35;100.00
3178;BME280;38141;42.666;23.344;2023-08-24T04:51:58;94771.72;;;22.98;100.00
3178;BME280;38141;42.666;23.344;2023-08-24T04:54:25;94840.25;;;23.45;100.00
3178;BME280;38141;42.666;23.344;2023-08-24T04:56:52;94814.19;;;23.19;100.00
3178;BME280;38141;42.666;23.344;2023-08-24T04:59:19;94849.44;;;23.70;100.00
3178;BME280;38141;42.666;23.344;2023-08-24T05:01:47;94805.13;;;23.19;100.00
3178;BME280;38141;42.666;23.344;2023-08-24T05:04:13;94842.84;;;23.40;100.00
3178;BME280;38141;42.666;23.344;2023-08-24T05:06:40;94822.16;;;23.44;100.00
3178;BME280;38141;42.666;23.344;2023-08-24T05:09:09;94744.84;;;23.17;100.00
3178;BME280;38141;42.666;23.344;2023-08-24T05:11:36;94857.63;;;24.15;100.00
3178;BME280;38141;42.666;23.344;2023-08-24T05:14:03;94851.97;;;24.01;100.00
3178;BME280;38141;42.666;23.344;2023-08-24T05:16:30;94854.63;;;23.86;100.00
3178;BME280;38141;42.666;23.344;2023-08-24T05:19:26;94881.63;;;23.91;100.00
3178;BME280;38141;42.666;23.344;2023-08-24T05:21:54;94859.13;;;23.56;100.00
3178;BME280;38141;42.666;23.344;2023-08-24T05:24:22;94838.41;;;23.42;100.00
3178;BME280;38141;42.666;23.344;2023-08-24T05:26:49;94857.75;;;23.61;100.00
3178;BME280;38141;42.666;23.344;2023-08-24T05:29:16;94813.41;;;23.28;100.00
3178;BME280;38141;42.666;23.344;2023-08-24T05:31:43;94860.53;;;23.52;100.00
3178;BME280;38141;42.666;23.344;2023-08-24T05:34:10;94892.88;;;23.78;100.00
3178;BME280;38141;42.666;23.344;2023-08-24T05:36:37;94875.75;;;24.25;100.00
3178;BME280;38141;42.666;23.344;2023-08-24T05:39:04;94776.81;;;23.78;100.00
3178;BME280;38141;42.666;23.344;2023-08-24T05:41:34;94848.50;;;24.33;100.00
3178;BME280;38141;42.666;23.344;2023-08-24T05:44:02;94850.78;;;24.67;100.00
3178;BME280;38141;42.666;23.344;2023-08-24T05:46:30;94822.16;;;24.47;100.00
3178;BME280;38141;42.666;23.344;2023-08-24T05:48:58;94890.34;;;25.15;100.00
3178;BME280;38141;42.666;23.344;2023-08-24T05:51:33;94841.47;;;24.89;100.00
3178;BME280;38141;42.666;23.344;2023-08-24T05:54:02;94846.97;;;25.12;98.82
3178;BME280;38141;42.666;23.344;2023-08-24T05:56:29;94808.38;;;24.85;97.30
3178;BME280;38141;42.666;23.344;2023-08-24T05:59:05;94792.06;;;25.93;88.14
3178;BME280;38141;42.666;23.344;2023-08-24T06:01:32;94835.38;;;26.70;83.03
3178;BME280;38141;42.666;23.344;2023-08-24T06:03:59;94874.44;;;27.62;77.50
3178;BME280;38141;42.666;23.344;2023-08-24T06:06:26;94864.75;;;29.03;71.26
3178;BME280;38141;42.666;23.344;2023-08-24T06:08:53;94849.69;;;30.30;64.02
3178;BME280;38141;42.666;23.344;2023-08-24T06:11:23;94805.72;;;29.86;62.47
3178;BME280;38141;42.666;23.344;2023-08-24T06:16:35;94912.94;;;30.55;60.75
3178;BME280;38141;42.666;23.344;2023-08-24T06:19:03;94875.03;;;29.98;63.26
3178;BME280;38141;42.666;23.344;2023-08-24T06:21:59;94900.81;;;31.55;58.27
3178;BME280;38141;42.666;23.344;2023-08-24T06:24:26;94836.94;;;31.01;57.45
3178;BME280;38141;42.666;23.344;2023-08-24T06:26:54;94819.88;;;31.10;56.40
3178;BME280;38141;42.666;23.344;2023-08-24T06:29:33;94914.03;;;32.17;54.56
3178;BME280;38141;42.666;23.344;2023-08-24T06:32:02;94843.53;;;32.08;53.66
3178;BME280;38141;42.666;23.344;2023-08-24T06:34:29;94913.66;;;31.91;55.64
3178;BME280;38141;42.666;23.344;2023-08-24T06:37:00;94904.50;;;31.85;54.18
3178;BME280;38141;42.666;23.344;2023-08-24T06:39:30;94872.59;;;32.05;54.63
3178;BME280;38141;42.666;23.344;2023-08-24T06:41:57;94817.78;;;32.50;52.29
3178;BME280;38141;42.666;23.344;2023-08-24T06:44:24;94853.69;;;33.06;50.91
3178;BME280;38141;42.666;23.344;2023-08-24T06:46:51;94842.78;;;33.27;49.80
3178;BME280;38141;42.666;23.344;2023-08-24T06:52:34;94903.28;;;34.59;47.37
3178;BME280;38141;42.666;23.344;2023-08-24T06:55:01;94826.63;;;35.30;45.57
3178;BME280;38141;42.666;23.344;2023-08-24T06:57:28;94901.00;;;35.74;43.18
3178;BME280;38141;42.666;23.344;2023-08-24T06:59:55;94870.59;;;34.43;45.47
3178;BME280;38141;42.666;23.344;2023-08-24T07:02:22;94847.06;;;34.59;44.69
3178;BME280;38141;42.666;23.344;2023-08-24T07:04:49;94848.66;;;34.86;44.06
3178;BME280;38141;42.666;23.344;2023-08-24T07:07:16;94843.56;;;35.63;43.16
3178;BME280;38141;42.666;23.344;2023-08-24T07:09:45;94851.28;;;36.10;41.33
3178;BME280;38141;42.666;23.344;2023-08-24T07:12:12;94827.50;;;35.98;40.64
3178;BME280;38141;42.666;23.344;2023-08-24T07:14:39;94843.44;;;36.29;39.64
3178;BME280;38141;42.666;23.344;2023-08-24T07:17:06;94891.13;;;36.82;40.13
3178;BME280;38141;42.666;23.344;2023-08-24T07:19:33;94805.34;;;36.15;39.55
3178;BME280;38141;42.666;23.344;2023-08-24T07:22:00;94850.88;;;36.06;40.85
3178;BME280;38141;42.666;23.344;2023-08-24T07:28:03;94808.06;;;34.68;42.21
3178;BME280;38141;42.666;23.344;2023-08-24T07:30:43;94858.81;;;34.57;43.56
3178;BME280;38141;42.666;23.344;2023-08-24T07:33:12;94809.66;;;33.63;44.74
3178;BME280;38141;42.666;23.344;2023-08-24T07:35:39;94795.50;;;33.74;45.67
3178;BME280;38141;42.666;23.344;2023-08-24T07:38:10;94846.94;;;33.82;45.25
3178;BME280;38141;42.666;23.344;2023-08-24T07:40:37;94824.06;;;34.28;44.78
3178;BME280;38141;42.666;23.344;2023-08-24T07:43:06;94820.75;;;35.01;43.37
3178;BME280;38141;42.666;23.344;2023-08-24T07:45:33;94819.47;;;34.57;43.19
3178;BME280;38141;42.666;23.344;2023-08-24T07:48:00;94856.72;;;35.48;41.91
3178;BME280;38141;42.666;23.344;2023-08-24T07:50:28;94851.22;;;35.89;40.81
3178;BME280;38141;42.666;23.344;2023-08-24T07:52:56;94826.78;;;36.18;41.21
3178;BME280;38141;42.666;23.344;2023-08-24T07:55:23;94866.44;;;35.47;42.20
3178;BME280;38141;42.666;23.344;2023-08-24T07:57:51;94850.31;;;36.41;40.54
3178;BME280;38141;42.666;23.344;2023-08-24T08:00:19;94833.94;;;36.81;38.83
3178;BME280;38141;42.666;23.344;2023-08-24T08:02:49;94882.09;;;37.53;39.63
3178;BME280;38141;42.666;23.344;2023-08-24T08:05:16;94836.69;;;37.15;38.51
3178;BME280;38141;42.666;23.344;2023-08-24T08:07:43;94871.63;;;37.12;38.55
3178;BME280;38141;42.666;23.344;2023-08-24T08:10:10;94883.91;;;37.43;38.33
3178;BME280;38141;42.666;23.344;2023-08-24T08:12:37;94875.50;;;36.81;39.13
3178;BME280;38141;42.666;23.344;2023-08-24T08:15:04;94878.69;;;36.77;38.36
3178;BME280;38141;42.666;23.344;2023-08-24T08:17:33;94852.22;;;36.60;39.15
3178;BME280;38141;42.666;23.344;2023-08-24T08:20:00;94873.00;;;37.47;38.14
3178;BME280;38141;42.666;23.344;2023-08-24T08:22:27;94881.78;;;37.36;37.47
3178;BME280;38141;42.666;23.344;2023-08-24T08:24:54;94876.34;;;38.91;35.70
3178;BME280;38141;42.666;23.344;2023-08-24T08:27:22;94872.72;;;39.44;33.96
3178;BME280;38141;42.666;23.344;2023-08-24T08:29:50;94877.47;;;40.52;32.65
3178;BME280;38141;42.666;23.344;2023-08-24T08:32:17;94865.38;;;41.01;32.06
3178;BME280;38141;42.666;23.344;2023-08-24T08:34:45;94878.72;;;40.91;32.75
3178;BME280;38141;42.666;23.344;2023-08-24T08:37:12;94866.00;;;42.10;31.56
3178;BME280;38141;42.666;23.344;2023-08-24T08:39:38;94858.59;;;42.68;29.54
3178;BME280;38141;42.666;23.344;2023-08-24T08:42:11;94861.31;;;42.49;29.21
3178;BME280;38141;42.666;23.344;2023-08-24T08:44:39;94859.63;;;43.55;29.06
3178;BME280;38141;42.666;23.344;2023-08-24T08:47:07;94858.84;;;42.99;29.37
3178;BME280;38141;42.666;23.344;2023-08-24T08:49:36;94860.28;;;43.92;28.02
3178;BME280;38141;42.666;23.344;2023-08-24T08:52:05;94858.59;;;43.99;27.62
3178;BME280;38141;42.666;23.344;2023-08-24T08:54:32;94849.72;;;43.75;27.97
3178;BME280;38141;42.666;23.344;2023-08-24T08:56:59;94837.28;;;44.28;27.04
3178;BME280;38141;42.666;23.344;2023-08-24T08:59:27;94838.00;;;45.20;26.13
3178;BME280;38141;42.666;23.344;2023-08-24T09:01:56;94845.03;;;45.92;25.58
3178;BME280;38141;42.666;23.344;2023-08-24T09:04:24;94835.56;;;46.55;25.09
3178;BME280;38141;42.666;23.344;2023-08-24T09:06:51;94830.53;;;47.72;23.37
3178;BME280;38141;42.666;23.344;2023-08-24T09:09:19;94835.53;;;48.08;23.81
3178;BME280;38141;42.666;23.344;2023-08-24T09:11:48;94822.50;;;46.87;24.05
3178;BME280;38141;42.666;23.344;2023-08-24T09:14:15;94827.75;;;47.14;23.92
3178;BME280;38141;42.666;23.344;2023-08-24T09:16:42;94820.19;;;46.39;24.51
3178;BME280;38141;42.666;23.344;2023-08-24T09:19:11;94820.72;;;48.51;23.13
3178;BME280;38141;42.666;23.344;2023-08-24T09:21:39;94813.75;;;48.68;22.58
3178;BME280;38141;42.666;23.344;2023-08-24T09:24:08;94778.06;;;48.59;22.21
3178;BME280;38141;42.666;23.344;2023-08-24T09:26:37;94811.91;;;47.13;23.29
3178;BME280;38141;42.666;23.344;2023-08-24T09:29:12;94810.91;;;46.85;23.88
3178;BME280;38141;42.666;23.344;2023-08-24T09:31:40;94799.19;;;48.91;22.30
3178;BME280;38141;42.666;23.344;2023-08-24T09:34:09;94802.44;;;47.82;23.27
3178;BME280;38141;42.666;23.344;2023-08-24T09:36:39;94795.59;;;48.26;22.35
3178;BME280;38141;42.666;23.344;2023-08-24T09:39:05;94798.97;;;49.98;21.40
3178;BME280;38141;42.666;23.344;2023-08-24T09:41:43;94783.41;;;52.29;19.32
3178;BME280;38141;42.666;23.344;2023-08-24T09:44:10;94790.53;;;51.41;19.93
3178;BME280;38141;42.666;23.344;2023-08-24T09:46:37;94787.59;;;51.08;19.69
3178;BME280;38141;42.666;23.344;2023-08-24T09:49:05;94760.53;;;50.99;20.20
3178;BME280;38141;42.666;23.344;2023-08-24T09:51:33;94743.81;;;51.63;19.11
3178;BME280;38141;42.666;23.344;2023-08-24T09:54:05;94742.50;;;49.34;20.63
3178;BME280;38141;42.666;23.344;2023-08-24T09:56:35;94713.34;;;48.05;21.66
3178;BME280;38141;42.666;23.344;2023-08-24T09:59:11;94758.06;;;48.61;21.73
3178;BME280;38141;42.666;23.344;2023-08-24T10:01:41;94746.94;;;49.94;20.60
3178;BME280;38141;42.666;23.344;2023-08-24T10:04:09;94767.28;;;49.98;20.80
3178;BME280;38141;42.666;23.344;2023-08-24T10:06:36;94750.47;;;48.40;21.69
3178;BME280;38141;42.666;23.344;2023-08-24T10:09:07;94758.28;;;49.33;21.02
3178;BME280;38141;42.666;23.344;2023-08-24T10:11:36;94754.59;;;46.90;22.61
3178;BME280;38141;42.666;23.344;2023-08-24T10:14:15;94752.59;;;47.52;21.84
3178;BME280;38141;42.666;23.344;2023-08-24T10:16:46;94746.38;;;46.72;22.66
3178;BME280;38141;42.666;23.344;2023-08-24T10:19:13;94743.16;;;46.78;22.75
3178;BME280;38141;42.666;23.344;2023-08-24T10:21:42;94747.41;;;45.97;23.43
3178;BME280;38141;42.666;23.344;2023-08-24T10:24:09;94744.59;;;44.91;24.21
3178;BME280;38141;42.666;23.344;2023-08-24T10:26:39;94744.81;;;43.93;25.64
3178;BME280;38141;42.666;23.344;2023-08-24T10:29:06;94736.41;;;43.18;26.06
3178;BME280;38141;42.666;23.344;2023-08-24T10:31:35;94734.00;;;43.43;26.02
3178;BME280;38141;42.666;23.344;2023-08-24T10:34:05;94735.25;;;43.50;25.36
3178;BME280;38141;42.666;23.344;2023-08-24T10:36:32;94736.84;;;42.23;26.61
3178;BME280;38141;42.666;23.344;2023-08-24T10:39:03;94688.19;;;41.04;27.28
3178;BME280;38141;42.666;23.344;2023-08-24T10:41:46;94721.41;;;41.89;26.75
3178;BME280;38141;42.666;23.344;2023-08-24T10:44:20;94701.38;;;41.09;27.14
3178;BME280;38141;42.666;23.344;2023-08-24T10:47:06;94728.72;;;40.37;27.99
3178;BME280;38141;42.666;23.344;2023-08-24T10:49:33;94693.50;;;40.40;28.09
3178;BME280;38141;42.666;23.344;2023-08-24T10:52:21;94724.13;;;39.45;29.68
3178;BME280;38141;42.666;23.344;2023-08-24T10:54:49;94679.53;;;38.98;30.11
3178;BME280;38141;42.666;23.344;2023-08-24T10:57:22;94724.91;;;40.10;29.42
3178;BME280;38141;42.666;23.344;2023-08-24T10:59:59;94715.16;;;40.28;29.12
3178;BME280;38141;42.666;23.344;2023-08-24T11:02:28;94718.06;;;39.88;29.77
3178;BME280;38141;42.666;23.344;2023-08-24T11:05:05;94676.59;;;39.68;30.23
3178;BME280;38141;42.666;23.344;2023-08-24T11:07:32;94706.91;;;39.50;31.22
3178;BME280;38141;42.666;23.344;2023-08-24T11:09:59;94693.78;;;39.23;31.25
3178;BME280;38141;42.666;23.344;2023-08-24T11:13:04;94711.09;;;38.18;33.77
3178;BME280;38141;42.666;23.344;2023-08-24T11:15:32;94682.38;;;37.18;35.02
3178;BME280;38141;42.666;23.344;2023-08-24T11:46:14;94713.28;;;37.31;35.29
3178;BME280;38141;42.666;23.344;2023-08-24T11:48:42;94706.88;;;37.30;35.39
3178;BME280;38141;42.666;23.344;2023-08-24T11:51:11;94700.88;;;36.98;36.34
3178;BME280;38141;42.666;23.344;2023-08-24T11:53:41;94703.13;;;36.92;37.21
3178;BME280;38141;42.666;23.344;2023-08-24T11:56:08;94695.94;;;36.83;37.42
3178;BME280;38141;42.666;23.344;2023-08-24T11:58:37;94642.94;;;35.84;38.68
3178;BME280;38141;42.666;23.344;2023-08-24T12:01:05;94683.66;;;36.52;37.51
3178;BME280;38141;42.666;23.344;2023-08-24T12:03:34;94659.47;;;36.08;39.05
3178;BME280;38141;42.666;23.344;2023-08-24T12:06:10;94642.06;;;35.89;38.99
3178;BME280;38141;42.666;23.344;2023-08-24T12:08:48;94606.66;;;35.39;40.02
3178;BME280;38141;42.666;23.344;2023-08-24T12:11:17;94674.56;;;35.56;40.77
3178;BME280;38141;42.666;23.344;2023-08-24T12:13:51;94628.47;;;35.12;40.04
3178;BME280;38141;42.666;23.344;2023-08-24T12:16:20;94646.16;;;34.86;41.28
3178;BME280;38141;42.666;23.344;2023-08-24T12:18:51;94642.63;;;34.20;42.20
3178;BME280;38141;42.666;23.344;2023-08-24T12:21:18;94676.44;;;34.41;42.25
3178;BME280;38141;42.666;23.344;2023-08-24T12:23:55;94627.81;;;34.46;41.26
3178;BME280;38141;42.666;23.344;2023-08-24T12:26:22;94596.16;;;34.19;42.70
3178;BME280;38141;42.666;23.344;2023-08-24T12:28:50;94631.47;;;34.27;41.99
3178;BME280;38141;42.666;23.344;2023-08-24T12:31:18;94635.13;;;34.09;42.29
3178;BME280;38141;42.666;23.344;2023-08-24T12:33:59;94630.94;;;34.29;41.02
3178;BME280;38141;42.666;23.344;2023-08-24T12:36:26;94649.00;;;34.33;40.84
3178;BME280;38141;42.666;23.344;2023-08-24T12:38:54;94602.94;;;33.97;40.95
3178;BME280;38141;42.666;23.344;2023-08-24T12:41:22;94631.53;;;33.95;41.53
3178;BME280;38141;42.666;23.344;2023-08-24T12:43:50;94606.16;;;34.01;40.51
3178;BME280;38141;42.666;23.344;2023-08-24T12:46:18;94648.94;;;34.07;40.73
3178;BME280;38141;42.666;23.344;2023-08-24T12:48:46;94694.16;;;34.62;39.97
3178;BME280;38141;42.666;23.344;2023-08-24T12:51:15;94699.84;;;34.75;39.90
3178;BME280;38141;42.666;23.344;2023-08-24T12:53:43;94630.25;;;33.97;39.75
3178;BME280;38141;42.666;23.344;2023-08-24T12:56:10;94663.88;;;34.15;39.69
3178;BME280;38141;42.666;23.344;2023-08-24T12:58:38;94655.69;;;34.30;39.97
3178;BME280;38141;42.666;23.344;2023-08-24T13:01:04;94720.00;;;34.34;40.24
3178;BME280;38141;42.666;23.344;2023-08-24T13:03:32;94654.97;;;33.34;41.04
3178;BME280;38141;42.666;23.344;2023-08-24T13:06:01;94619.59;;;33.44;39.61
3178;BME280;38141;42.666;23.344;2023-08-24T13:08:31;94711.13;;;33.10;42.45
3178;BME280;38141;42.666;23.344;2023-08-24T13:10:59;94671.25;;;32.07;44.21
3178;BME280;38141;42.666;23.344;2023-08-24T13:13:28;94627.06;;;31.70;44.68
3178;BME280;38141;42.666;23.344;2023-08-24T13:15:55;94620.31;;;32.08;44.81
3178;BME280;38141;42.666;23.344;2023-08-24T13:18:34;94625.50;;;31.99;44.89
3178;BME280;38141;42.666;23.344;2023-08-24T13:21:01;94683.53;;;32.52;45.86
3178;BME280;38141;42.666;23.344;2023-08-24T13:23:32;94688.56;;;33.02;45.19
3178;BME280;38141;42.666;23.344;2023-08-24T13:26:00;94653.28;;;32.45;46.27
3178;BME280;38141;42.666;23.344;2023-08-24T13:28:27;94680.72;;;32.52;46.37
3178;BME280;38141;42.666;23.344;2023-08-24T13:30:55;94662.69;;;32.72;46.01
3178;BME280;38141;42.666;23.344;2023-08-24T13:33:21;94646.69;;;33.04;44.89
3178;BME280;38141;42.666;23.344;2023-08-24T13:35:48;94662.22;;;32.44;46.99
3178;BME280;38141;42.666;23.344;2023-08-24T13:38:15;94639.22;;;32.51;46.51
3178;BME280;38141;42.666;23.344;2023-08-24T13:40:44;94696.59;;;33.12;45.34